Aérodrome :
LOGIN :

S'inscrire | Disclaimer

   EN    FR    IT 

 










Légende :    VFR   VFR Marginal   IFR   IFR Intensif   IFR Très Intensif
Visi : 
Plafond : 
>= 8 km
>= 3000ft
5 à 8 km
1000 à 3000 ft
1500m à 5 km
500 à 1000 ft
800 à 1500m
200 à 500 ft
< 800m
< 200 ft
Symboles :   Orages  Brouillard  Fortes neiges  Fortes précipitations  Vent > 20 kt
SIGMETs :   Divers  Orages  Givrage  Turbulence  Onde Orograph.  Cendres Volcan.







- Altitude de l'aérodrome : 154 ft
- Code IATA : SZZ


EPSC - Szczecin Goleniow

DERNIER METAR :
  • 240000Z VRB01KT CAVOK 13/13 Q1012

METARs EXPIRÉS :
  • 232330Z VRB02KT CAVOK 14/13 Q1012
  • 232300Z 11003KT CAVOK 14/14 Q1012
  • 232230Z 12003KT 090V150 CAVOK 13/13 Q1012
  • 232200Z 13004KT CAVOK 14/14 Q1012
  • 232130Z VRB01KT CAVOK 15/14 Q1012

TAF TAF EPSC
Valide du 24 à 00h jusqu'au 25 à 00h UTC


232330Z 2400/2424 VRB05KT CAVOK
BECMG 2400/2402 3000 BR
TEMPO 2400/2406 0500 FG OVC001
BECMG 2406/2408 CAVOK
Pas de NOTAMs connus pour ce terrain.



MET'MAP, la Météo Aéronautique d'un coup d'oeil ! - Copyright ORBIFLY Décembre 2007 - Disclaimer

ORBIFLY MET'MAP TEAM :

Programmation & Développement : Alexandra Zaïnal
Conception & Développement : Baudouin d'Aumeries
Co-Programmation & Développement : Marc-Olivier Méhu
Soutien technique & logistique : Manuel Goepfert

Contact : metmap@orbifly.com




SOURCES & CREDITS :

   NOAA